Terminal Aerodrome Forecast
Issued by NWS Paducah, KY

Home | Current Version | Previous Version | Text Only | Print | Product List | Glossary On
Versions: 1 2 3 4 5 6 7 8 9 10 11 12 13 14 15 16 17
000
FTUS43 KPAH 252327
TAFEVV
TAF
KEVV 252327Z 2600/2624 VRB04KT P6SM SCT025
     FM260300 08007KT P6SM -SHRA SCT025 BKN040
     FM260500 09012KT 5SM TSRA BKN025CB
      TEMPO 2605/2608 VRB20G35KT 1SM +TSRA BR BKN008CB
     FM261000 32014G23KT 5SM -SHRA BR BKN025=

USA.gov is the U.S. government's official web portal to all federal, state and local government web resources and services.